Time;durP1;ratioP1;P1;durP2;ratioP2;P2;SDS_P1;SDS_P2;PMS_P1;PMS_P2;Temp;Humidity;BMP_temperature;BMP_pressure;BME280_temperature;BME280_humidity;BME280_pressure;Samples;Min_cycle;Max_cycle;Signal;HPM_P1;HPM_P2
2022/06/18 00:00:21;;;;;;;;;;;24.50;49.00;;;;;;4900196;29;19912;-69
2022/06/18 00:02:47;;;;;;;;;;;24.50;48.80;;;;;;4900835;29;19951;-70
2022/06/18 00:05:14;;;;;;;;;;;24.50;48.70;;;;;;4900507;29;20363;-70
2022/06/18 00:07:42;;;;;;;;;;;24.50;48.70;;;;;;4900591;29;19912;-69
2022/06/18 00:10:12;;;;;;;;;;;24.50;48.90;;;;;;4900151;29;20006;-65
2022/06/18 00:15:27;;;;;;;;;;;24.40;49.00;;;;;;4900603;29;19918;-69
2022/06/18 00:17:53;;;;;;;;;;;24.40;49.10;;;;;;4900311;29;20027;-67
2022/06/18 00:20:19;;;;;;;;;;;24.40;49.30;;;;;;4900231;29;19955;-67
2022/06/18 00:22:50;;;;;;;;;;;24.40;49.50;;;;;;4900003;29;20373;-69
2022/06/18 00:25:17;;;;;;;;;;;24.40;49.50;;;;;;4900069;29;20372;-66
2022/06/18 00:27:43;;;;;;;;;;;24.40;49.80;;;;;;4899987;29;19912;-70
2022/06/18 00:30:10;;;;;;;;;;;24.20;50.00;;;;;;4900129;29;20428;-70
2022/06/18 00:32:36;;;;;;;;;;;24.40;49.90;;;;;;4899970;29;20367;-68
2022/06/18 00:35:01;;;;;;;;;;;24.40;49.60;;;;;;4900007;29;19915;-70
2022/06/18 00:37:27;;;;;;;;;;;24.40;49.80;;;;;;4899614;29;19919;-69
2022/06/18 00:39:52;;;;;;;;;;;24.30;49.90;;;;;;4899744;29;19935;-70
2022/06/18 00:42:23;;;;;;;;;;;24.40;49.90;;;;;;4899931;29;20368;-70
2022/06/18 00:44:54;;;;;;;;;;;24.30;50.10;;;;;;4899673;29;20380;-69
2022/06/18 00:47:54;;;;;;;;;;;24.30;50.40;;;;;;4899604;29;20423;-69
2022/06/18 00:50:30;;;;;;;;;;;24.20;50.60;;;;;;4878622;29;19916;-67
2022/06/18 00:52:59;;;;;;;;;;;24.20;50.60;;;;;;4896795;29;19912;-69
2022/06/18 00:55:30;;;;;;;;;;;24.10;50.90;;;;;;4899539;29;19912;-69
2022/06/18 00:58:14;;;;;;;;;;;24.10;50.90;;;;;;4899301;29;20059;-68
2022/06/18 01:00:41;;;;;;;;;;;24.00;51.30;;;;;;4898848;29;20276;-68
2022/06/18 01:03:21;;;;;;;;;;;24.00;51.20;;;;;;4899215;29;19918;-69
2022/06/18 01:05:46;;;;;;;;;;;24.00;51.10;;;;;;4899357;29;19912;-65
2022/06/18 01:08:13;;;;;;;;;;;24.10;50.90;;;;;;4899177;29;19918;-70
2022/06/18 01:10:41;;;;;;;;;;;24.20;50.90;;;;;;4899227;29;20502;-69
2022/06/18 01:13:10;;;;;;;;;;;24.10;51.00;;;;;;4899096;29;19967;-69
2022/06/18 01:15:37;;;;;;;;;;;24.00;51.10;;;;;;4899622;29;19912;-69
2022/06/18 01:18:03;;;;;;;;;;;24.00;51.40;;;;;;4899105;29;19926;-65
2022/06/18 01:20:28;;;;;;;;;;;24.00;51.30;;;;;;4899085;29;19912;-65
2022/06/18 01:22:57;;;;;;;;;;;24.10;51.50;;;;;;4899207;29;19980;-68
2022/06/18 01:25:24;;;;;;;;;;;24.10;51.40;;;;;;4900325;29;19912;-69
2022/06/18 01:27:51;;;;;;;;;;;24.10;51.40;;;;;;4914122;29;19911;-69
2022/06/18 01:30:18;;;;;;;;;;;24.10;51.30;;;;;;4914756;29;19958;-70
2022/06/18 01:32:45;;;;;;;;;;;24.10;51.40;;;;;;4914705;29;20276;-69
2022/06/18 01:35:11;;;;;;;;;;;24.10;51.60;;;;;;4914698;29;19999;-70
2022/06/18 01:37:37;;;;;;;;;;;24.10;51.50;;;;;;4914191;29;19920;-69
2022/06/18 01:40:03;;;;;;;;;;;24.00;51.70;;;;;;4914367;29;19895;-69
2022/06/18 01:42:32;;;;;;;;;;;24.00;51.90;;;;;;4902392;29;19962;-69
2022/06/18 01:44:59;;;;;;;;;;;23.90;52.00;;;;;;4899395;29;19935;-65
2022/06/18 01:47:31;;;;;;;;;;;23.90;52.00;;;;;;4899134;29;19918;-66
2022/06/18 01:50:01;;;;;;;;;;;23.90;52.10;;;;;;4898934;29;19919;-69
2022/06/18 01:52:29;;;;;;;;;;;23.80;52.00;;;;;;4898980;29;19915;-69
2022/06/18 01:54:57;;;;;;;;;;;23.80;52.30;;;;;;4899249;29;19999;-69
2022/06/18 01:57:28;;;;;;;;;;;23.80;52.40;;;;;;4898876;29;20412;-69
2022/06/18 01:59:57;;;;;;;;;;;23.90;52.30;;;;;;4898920;29;19912;-69
2022/06/18 02:02:22;;;;;;;;;;;23.90;52.20;;;;;;4898755;29;19911;-69
2022/06/18 02:04:48;;;;;;;;;;;23.80;52.40;;;;;;4898740;29;19911;-68
2022/06/18 02:07:15;;;;;;;;;;;23.80;52.40;;;;;;4898492;29;19911;-69
2022/06/18 02:09:58;;;;;;;;;;;23.80;52.40;;;;;;4898672;29;19967;-69
2022/06/18 02:12:25;;;;;;;;;;;23.70;52.40;;;;;;4900470;29;20279;-69
2022/06/18 02:15:11;;;;;;;;;;;23.50;52.60;;;;;;4902540;29;19916;-69
2022/06/18 02:17:38;;;;;;;;;;;23.60;53.10;;;;;;4902229;29;19920;-69
2022/06/18 02:20:15;;;;;;;;;;;23.60;52.80;;;;;;4902258;29;19911;-70
2022/06/18 02:22:42;;;;;;;;;;;23.70;52.60;;;;;;4902136;29;20368;-66
2022/06/18 02:25:08;;;;;;;;;;;23.70;52.50;;;;;;4902215;29;19924;-70
2022/06/18 02:27:34;;;;;;;;;;;23.70;52.60;;;;;;4902464;29;19915;-69
2022/06/18 02:30:00;;;;;;;;;;;23.70;52.60;;;;;;4902036;29;20443;-64
2022/06/18 02:32:29;;;;;;;;;;;23.70;52.70;;;;;;4902187;29;19918;-69
2022/06/18 02:34:55;;;;;;;;;;;23.70;52.90;;;;;;4902310;29;19911;-69
2022/06/18 02:37:25;;;;;;;;;;;23.60;52.90;;;;;;4902212;29;19926;-68
2022/06/18 02:40:01;;;;;;;;;;;23.50;53.00;;;;;;4902200;29;19911;-69
2022/06/18 02:42:30;;;;;;;;;;;23.50;53.30;;;;;;4901970;29;19911;-69
2022/06/18 02:44:56;;;;;;;;;;;23.50;53.40;;;;;;4901844;29;19958;-69
2022/06/18 02:47:22;;;;;;;;;;;23.50;53.30;;;;;;4900956;29;19915;-66
2022/06/18 02:49:51;;;;;;;;;;;23.60;53.10;;;;;;4901759;29;19934;-70
2022/06/18 02:52:17;;;;;;;;;;;23.60;53.10;;;;;;4901802;29;19919;-68
2022/06/18 02:54:43;;;;;;;;;;;23.50;53.20;;;;;;4901812;29;19916;-64
2022/06/18 02:57:12;;;;;;;;;;;23.50;53.20;;;;;;4901473;29;20382;-68
2022/06/18 02:59:38;;;;;;;;;;;23.50;53.10;;;;;;4901528;29;19911;-70
2022/06/18 03:02:03;;;;;;;;;;;23.40;53.40;;;;;;4901766;29;19918;-69
2022/06/18 03:04:29;;;;;;;;;;;23.30;53.60;;;;;;4901528;29;19912;-69
2022/06/18 03:06:54;;;;;;;;;;;23.30;53.70;;;;;;4901820;29;20360;-68
2022/06/18 03:09:20;;;;;;;;;;;23.20;54.10;;;;;;4901434;29;19968;-69
2022/06/18 03:14:29;;;;;;;;;;;23.30;53.70;;;;;;4901541;29;19919;-69
2022/06/18 03:16:55;;;;;;;;;;;23.40;53.70;;;;;;4901202;29;19919;-70
2022/06/18 03:19:23;;;;;;;;;;;23.30;53.70;;;;;;4901220;29;19915;-70
2022/06/18 03:21:50;;;;;;;;;;;23.30;53.80;;;;;;4901153;29;19924;-69
2022/06/18 03:24:16;;;;;;;;;;;23.20;54.00;;;;;;4900385;29;19915;-70
2022/06/18 03:26:41;;;;;;;;;;;23.20;53.80;;;;;;4901130;29;19918;-65
2022/06/18 03:29:07;;;;;;;;;;;23.20;53.80;;;;;;4901203;29;19916;-70
2022/06/18 03:31:34;;;;;;;;;;;23.30;53.80;;;;;;4901150;29;20007;-70
2022/06/18 03:33:59;;;;;;;;;;;23.30;53.70;;;;;;4900958;29;20295;-70
2022/06/18 03:36:25;;;;;;;;;;;23.20;53.80;;;;;;4900850;29;20407;-70
2022/06/18 03:38:51;;;;;;;;;;;23.30;53.70;;;;;;4900693;29;20368;-66
2022/06/18 03:41:17;;;;;;;;;;;23.20;53.60;;;;;;4901087;29;19919;-69
2022/06/18 03:43:43;;;;;;;;;;;23.20;53.50;;;;;;4901186;29;19912;-66
2022/06/18 03:46:11;;;;;;;;;;;23.30;53.40;;;;;;4900971;29;19919;-70
2022/06/18 03:48:42;;;;;;;;;;;23.30;53.20;;;;;;4900914;29;19916;-70
2022/06/18 03:51:08;;;;;;;;;;;23.30;52.90;;;;;;4900955;29;19916;-70
2022/06/18 03:53:34;;;;;;;;;;;23.30;53.00;;;;;;4900471;29;20000;-70
2022/06/18 03:55:59;;;;;;;;;;;23.30;53.00;;;;;;4900727;29;20282;-69
2022/06/18 03:58:27;;;;;;;;;;;23.40;52.90;;;;;;4900809;29;19927;-66
2022/06/18 04:00:52;;;;;;;;;;;23.40;52.70;;;;;;4900760;29;19911;-69
2022/06/18 04:03:18;;;;;;;;;;;23.40;52.70;;;;;;4900450;29;19918;-69
2022/06/18 04:05:43;;;;;;;;;;;23.30;53.00;;;;;;4900505;29;19915;-70
2022/06/18 04:08:12;;;;;;;;;;;23.40;52.90;;;;;;4900310;29;19911;-70
2022/06/18 04:10:37;;;;;;;;;;;23.30;53.00;;;;;;4900692;29;19996;-69
2022/06/18 04:13:03;;;;;;;;;;;23.20;53.20;;;;;;4900285;29;19911;-68
2022/06/18 04:15:28;;;;;;;;;;;23.30;53.20;;;;;;4900392;29;20002;-70
2022/06/18 04:17:54;;;;;;;;;;;23.40;53.10;;;;;;4900153;29;19931;-70
2022/06/18 04:20:25;;;;;;;;;;;23.40;52.90;;;;;;4900158;29;19964;-69
2022/06/18 04:22:51;;;;;;;;;;;23.40;52.90;;;;;;4899881;29;19928;-69
2022/06/18 04:25:16;;;;;;;;;;;23.30;53.10;;;;;;4900235;29;19959;-69
2022/06/18 04:27:42;;;;;;;;;;;23.30;53.10;;;;;;4899954;29;19911;-69
2022/06/18 04:30:08;;;;;;;;;;;23.30;53.10;;;;;;4899934;29;19919;-70
2022/06/18 04:32:36;;;;;;;;;;;23.30;52.80;;;;;;4899818;29;19919;-69
2022/06/18 04:35:03;;;;;;;;;;;23.20;52.90;;;;;;4899598;29;19959;-69
2022/06/18 04:37:28;;;;;;;;;;;23.20;52.80;;;;;;4899277;29;19920;-69
2022/06/18 04:39:54;;;;;;;;;;;23.20;52.80;;;;;;4899696;29;20226;-69
2022/06/18 04:42:20;;;;;;;;;;;23.20;52.70;;;;;;4899895;29;20280;-65
2022/06/18 04:44:45;;;;;;;;;;;23.30;52.60;;;;;;4900092;29;20361;-65
2022/06/18 04:47:11;;;;;;;;;;;23.30;52.40;;;;;;4899923;29;19963;-70
2022/06/18 04:49:36;;;;;;;;;;;23.30;52.50;;;;;;4899446;29;19911;-69
2022/06/18 04:52:02;;;;;;;;;;;23.30;52.40;;;;;;4900044;29;20357;-67
2022/06/18 04:54:27;;;;;;;;;;;23.30;52.30;;;;;;4900993;29;20364;-68
2022/06/18 04:56:53;;;;;;;;;;;23.30;52.10;;;;;;4900213;29;20041;-69
2022/06/18 04:59:19;;;;;;;;;;;23.30;51.90;;;;;;4899805;29;20064;-70
2022/06/18 05:01:45;;;;;;;;;;;23.40;51.80;;;;;;4900169;29;19919;-70
2022/06/18 05:04:11;;;;;;;;;;;23.50;51.50;;;;;;4900888;29;19915;-66
2022/06/18 05:06:36;;;;;;;;;;;23.50;51.10;;;;;;4901911;29;19915;-70
2022/06/18 05:09:02;;;;;;;;;;;23.50;51.00;;;;;;4899708;29;19911;-69
2022/06/18 05:11:27;;;;;;;;;;;23.50;50.80;;;;;;4899550;29;19967;-69
2022/06/18 05:13:53;;;;;;;;;;;23.50;50.70;;;;;;4899250;29;20388;-69
2022/06/18 05:16:19;;;;;;;;;;;23.50;50.60;;;;;;4899023;29;19951;-69
2022/06/18 05:18:45;;;;;;;;;;;23.50;50.50;;;;;;4899391;29;19964;-68
2022/06/18 05:21:10;;;;;;;;;;;23.50;50.10;;;;;;4899126;29;20014;-70
2022/06/18 05:23:36;;;;;;;;;;;23.60;50.00;;;;;;4899361;29;19955;-70
2022/06/18 05:26:02;;;;;;;;;;;23.60;49.80;;;;;;4899052;29;20428;-69
2022/06/18 05:28:28;;;;;;;;;;;23.70;49.40;;;;;;4898822;29;19911;-70
2022/06/18 05:30:54;;;;;;;;;;;23.80;49.20;;;;;;4899152;29;19958;-70
2022/06/18 05:33:19;;;;;;;;;;;23.80;49.00;;;;;;4898998;29;19911;-68
2022/06/18 05:35:45;;;;;;;;;;;23.90;48.60;;;;;;4899232;29;19919;-70
2022/06/18 05:38:16;;;;;;;;;;;24.20;47.60;;;;;;4898885;29;20031;-69
2022/06/18 05:40:42;;;;;;;;;;;24.50;46.90;;;;;;4898860;29;20288;-68
2022/06/18 05:43:07;;;;;;;;;;;24.90;45.80;;;;;;4899084;29;19911;-69
2022/06/18 05:45:33;;;;;;;;;;;25.10;45.50;;;;;;4899200;29;19943;-70
2022/06/18 05:47:58;;;;;;;;;;;25.30;44.90;;;;;;4898409;29;19919;-71
2022/06/18 05:50:25;;;;;;;;;;;25.50;44.50;;;;;;4898905;29;19983;-73
2022/06/18 05:52:50;;;;;;;;;;;25.70;43.60;;;;;;4899096;29;19916;-71
2022/06/18 05:55:20;;;;;;;;;;;25.90;43.70;;;;;;4899065;29;19911;-66
2022/06/18 05:57:54;;;;;;;;;;;26.20;42.70;;;;;;4898749;29;20006;-70
2022/06/18 06:00:22;;;;;;;;;;;26.40;42.00;;;;;;4898675;29;20002;-73
2022/06/18 06:02:47;;;;;;;;;;;26.60;41.50;;;;;;4898574;29;19923;-69
2022/06/18 06:05:13;;;;;;;;;;;26.40;41.10;;;;;;4899063;29;20364;-72
2022/06/18 06:07:39;;;;;;;;;;;26.60;41.70;;;;;;4898988;29;19911;-73
2022/06/18 06:12:59;;;;;;;;;;;26.50;41.70;;;;;;4898647;29;19999;-74
2022/06/18 06:15:24;;;;;;;;;;;26.60;41.20;;;;;;4898714;29;20340;-79
2022/06/18 06:17:50;;;;;;;;;;;26.60;41.40;;;;;;4898633;29;19963;-78
2022/06/18 06:20:24;;;;;;;;;;;26.70;41.00;;;;;;4898606;29;20276;-79
2022/06/18 06:22:50;;;;;;;;;;;26.80;40.90;;;;;;4897711;29;19935;-66
2022/06/18 06:25:16;;;;;;;;;;;27.20;40.80;;;;;;4898360;29;20432;-75
2022/06/18 06:27:41;;;;;;;;;;;27.70;39.80;;;;;;4898574;29;19962;-63
2022/06/18 06:30:11;;;;;;;;;;;28.00;39.10;;;;;;4898259;29;19912;-75
2022/06/18 06:32:36;;;;;;;;;;;28.30;38.30;;;;;;4898300;29;20395;-80
2022/06/18 06:35:02;;;;;;;;;;;28.70;38.00;;;;;;4898936;29;19947;-75
2022/06/18 06:37:28;;;;;;;;;;;28.90;37.40;;;;;;4898244;29;19920;-78
2022/06/18 06:39:53;;;;;;;;;;;29.10;36.90;;;;;;4898562;29;19911;-82
2022/06/18 06:42:19;;;;;;;;;;;29.20;36.90;;;;;;4898370;29;19915;-79
2022/06/18 06:44:44;;;;;;;;;;;29.50;36.60;;;;;;4898109;29;20317;-79
2022/06/18 06:47:10;;;;;;;;;;;29.70;36.40;;;;;;4898284;29;19911;-77
2022/06/18 06:49:36;;;;;;;;;;;29.90;36.50;;;;;;4898207;29;19911;-80
2022/06/18 06:52:01;;;;;;;;;;;30.00;36.00;;;;;;4898103;29;19915;-79
2022/06/18 06:54:27;;;;;;;;;;;30.10;35.80;;;;;;4898271;29;20371;-72
2022/06/18 06:59:37;;;;;;;;;;;30.30;35.70;;;;;;4899710;29;19950;-71
2022/06/18 07:02:02;;;;;;;;;;;30.30;35.30;;;;;;4901589;29;19955;-69
2022/06/18 07:04:29;;;;;;;;;;;30.30;35.30;;;;;;4901350;29;19918;-77
2022/06/18 07:06:56;;;;;;;;;;;30.30;35.30;;;;;;4901375;29;20014;-66
2022/06/18 07:09:21;;;;;;;;;;;30.40;35.20;;;;;;4901276;29;20006;-77
2022/06/18 07:11:47;;;;;;;;;;;30.30;35.90;;;;;;4901539;29;20319;-76
2022/06/18 07:14:12;;;;;;;;;;;30.30;35.70;;;;;;4901320;29;20364;-78
2022/06/18 07:16:48;;;;;;;;;;;30.50;35.80;;;;;;4901158;29;19927;-70
2022/06/18 07:19:14;;;;;;;;;;;30.50;35.50;;;;;;4900987;29;19937;-72
2022/06/18 07:21:40;;;;;;;;;;;30.60;34.80;;;;;;4893191;29;20416;-64
2022/06/18 07:24:05;;;;;;;;;;;30.40;35.20;;;;;;4882097;29;19971;-68
2022/06/18 07:26:31;;;;;;;;;;;30.30;35.80;;;;;;4882410;29;19916;-66
2022/06/18 07:28:56;;;;;;;;;;;30.40;35.50;;;;;;4882225;29;19919;-69
2022/06/18 07:31:27;;;;;;;;;;;30.50;35.60;;;;;;4882330;29;20276;-69
2022/06/18 07:33:53;;;;;;;;;;;30.60;36.00;;;;;;4882202;29;20301;-74
2022/06/18 07:36:19;;;;;;;;;;;30.40;35.30;;;;;;4881886;29;19916;-69
2022/06/18 07:38:45;;;;;;;;;;;30.40;35.10;;;;;;4882115;29;20002;-71
2022/06/18 07:41:11;;;;;;;;;;;30.40;35.80;;;;;;4882011;29;20344;-74
2022/06/18 07:43:46;;;;;;;;;;;30.50;36.20;;;;;;4881924;29;19962;-69
2022/06/18 07:46:11;;;;;;;;;;;30.50;35.50;;;;;;4881957;29;20307;-65
2022/06/18 07:48:39;;;;;;;;;;;30.50;34.90;;;;;;4882050;29;19912;-70
2022/06/18 07:51:05;;;;;;;;;;;30.60;35.00;;;;;;4881481;29;20006;-65
2022/06/18 07:53:31;;;;;;;;;;;30.60;35.30;;;;;;4881886;29;19912;-69
2022/06/18 07:55:56;;;;;;;;;;;30.80;34.90;;;;;;4881944;29;19918;-68
2022/06/18 07:58:22;;;;;;;;;;;30.80;35.00;;;;;;4881668;29;19924;-66
2022/06/18 08:00:48;;;;;;;;;;;30.80;36.30;;;;;;4883386;29;19916;-65
2022/06/18 08:03:15;;;;;;;;;;;30.70;36.30;;;;;;4895433;29;20432;-64
2022/06/18 08:05:41;;;;;;;;;;;30.60;34.90;;;;;;4883871;29;19915;-71
2022/06/18 08:08:06;;;;;;;;;;;30.50;36.10;;;;;;4881578;29;19995;-67
2022/06/18 08:10:34;;;;;;;;;;;30.40;35.40;;;;;;4881066;29;20064;-69
2022/06/18 08:12:59;;;;;;;;;;;30.30;35.90;;;;;;4881327;29;19911;-66
2022/06/18 08:15:25;;;;;;;;;;;30.40;36.20;;;;;;4881157;29;19936;-69
2022/06/18 08:17:50;;;;;;;;;;;30.40;35.70;;;;;;4881038;29;19920;-71
2022/06/18 08:20:18;;;;;;;;;;;30.20;34.90;;;;;;4880398;29;21279;-72
2022/06/18 08:22:44;;;;;;;;;;;30.10;34.80;;;;;;4881142;29;19923;-67
2022/06/18 08:25:11;;;;;;;;;;;30.10;35.80;;;;;;4881020;29;20011;-78
2022/06/18 08:27:36;;;;;;;;;;;30.20;35.60;;;;;;4881270;29;20364;-67
2022/06/18 08:30:03;;;;;;;;;;;30.20;35.90;;;;;;4881172;29;19922;-67
2022/06/18 08:32:29;;;;;;;;;;;30.10;35.20;;;;;;4880886;29;19998;-69
2022/06/18 08:34:54;;;;;;;;;;;30.10;35.30;;;;;;4880918;29;19970;-67
2022/06/18 08:37:20;;;;;;;;;;;29.90;35.30;;;;;;4881131;29;19920;-71
2022/06/18 08:39:46;;;;;;;;;;;30.00;35.60;;;;;;4880830;29;20041;-71
2022/06/18 08:42:20;;;;;;;;;;;30.00;36.10;;;;;;4880845;29;20353;-65
2022/06/18 08:44:51;;;;;;;;;;;30.00;35.30;;;;;;4880735;29;19911;-71
2022/06/18 08:47:40;;;;;;;;;;;30.00;34.90;;;;;;4880710;29;19912;-71
2022/06/18 08:50:25;;;;;;;;;;;30.00;35.10;;;;;;4880450;29;19955;-65
2022/06/18 08:53:02;;;;;;;;;;;30.00;35.90;;;;;;4880743;29;19916;-65
2022/06/18 08:55:28;;;;;;;;;;;29.90;34.30;;;;;;4880723;29;19919;-62
2022/06/18 08:58:09;;;;;;;;;;;30.00;34.50;;;;;;4880796;29;19920;-63
2022/06/18 09:00:49;;;;;;;;;;;30.10;34.60;;;;;;4881054;29;19937;-68
2022/06/18 09:03:33;;;;;;;;;;;30.10;35.20;;;;;;4880550;29;19912;-65
2022/06/18 09:06:05;;;;;;;;;;;30.00;34.00;;;;;;4880578;29;20325;-63
2022/06/18 09:08:30;;;;;;;;;;;30.10;35.30;;;;;;4880464;29;19967;-62
2022/06/18 09:10:58;;;;;;;;;;;30.10;35.30;;;;;;4880508;29;19915;-63
2022/06/18 09:13:26;;;;;;;;;;;30.20;36.30;;;;;;4880796;29;20336;-66
2022/06/18 09:15:58;;;;;;;;;;;30.30;36.30;;;;;;4880682;29;20428;-73
2022/06/18 09:18:26;;;;;;;;;;;30.20;34.40;;;;;;4880071;29;19968;-64
2022/06/18 09:20:58;;;;;;;;;;;30.20;35.50;;;;;;4880405;29;20420;-63
2022/06/18 09:23:23;;;;;;;;;;;30.10;37.00;;;;;;4879927;29;19955;-64
2022/06/18 09:25:51;;;;;;;;;;;30.10;37.10;;;;;;4880319;29;19955;-65
2022/06/18 09:28:19;;;;;;;;;;;30.00;36.90;;;;;;4880072;29;19948;-69
2022/06/18 09:30:47;;;;;;;;;;;30.00;37.10;;;;;;4880285;29;19919;-63
2022/06/18 09:33:22;;;;;;;;;;;30.00;37.80;;;;;;4880150;29;20003;-63
2022/06/18 09:35:50;;;;;;;;;;;30.00;37.10;;;;;;4880130;29;19966;-65
2022/06/18 09:38:19;;;;;;;;;;;30.00;33.90;;;;;;4880291;29;20377;-62
2022/06/18 09:40:50;;;;;;;;;;;30.10;33.80;;;;;;4880085;29;19912;-63
2022/06/18 09:43:37;;;;;;;;;;;30.00;36.30;;;;;;4880059;29;19912;-70
2022/06/18 09:46:06;;;;;;;;;;;30.00;35.60;;;;;;4880022;29;19918;-64
2022/06/18 09:48:32;;;;;;;;;;;29.90;35.80;;;;;;4880112;29;19912;-67
2022/06/18 09:51:01;;;;;;;;;;;29.80;37.10;;;;;;4880415;29;20387;-64
2022/06/18 09:53:34;;;;;;;;;;;29.80;36.10;;;;;;4879873;29;19912;-64
2022/06/18 09:56:07;;;;;;;;;;;29.80;35.00;;;;;;4879887;29;19918;-77
2022/06/18 09:58:35;;;;;;;;;;;29.70;36.80;;;;;;4880078;29;19919;-72
2022/06/18 10:01:00;;;;;;;;;;;29.50;39.00;;;;;;4882055;29;20325;-65
2022/06/18 10:09:34;;;;;;;;;;;29.20;35.00;;;;;;4881305;29;19968;-65
2022/06/18 10:12:20;;;;;;;;;;;29.20;34.60;;;;;;4882079;29;19912;-67
2022/06/18 10:14:48;;;;;;;;;;;29.20;35.00;;;;;;4879874;29;19912;-65
2022/06/18 10:17:14;;;;;;;;;;;29.30;34.70;;;;;;4883305;29;19920;-71
2022/06/18 10:19:46;;;;;;;;;;;29.40;35.20;;;;;;4898352;29;19938;-66
2022/06/18 10:22:11;;;;;;;;;;;29.40;37.50;;;;;;4898529;29;19930;-79
2022/06/18 10:24:37;;;;;;;;;;;29.30;37.20;;;;;;4898270;29;19911;-66
2022/06/18 10:27:08;;;;;;;;;;;29.20;37.20;;;;;;4898432;29;19927;-67
2022/06/18 10:29:39;;;;;;;;;;;29.10;38.40;;;;;;4898463;29;19971;-72
2022/06/18 10:32:08;;;;;;;;;;;29.10;38.30;;;;;;4898338;29;19982;-74
2022/06/18 10:34:37;;;;;;;;;;;29.10;38.20;;;;;;4901757;29;19911;-76
2022/06/18 10:37:02;;;;;;;;;;;29.10;38.50;;;;;;4901975;29;19919;-69
2022/06/18 10:39:34;;;;;;;;;;;29.00;38.70;;;;;;4901809;29;19919;-74
2022/06/18 10:42:15;;;;;;;;;;;29.00;38.40;;;;;;4901846;29;19923;-71
2022/06/18 10:44:56;;;;;;;;;;;29.00;38.70;;;;;;4902059;29;20260;-73
2022/06/18 10:47:21;;;;;;;;;;;29.10;38.50;;;;;;4901701;29;20349;-70
2022/06/18 10:49:59;;;;;;;;;;;29.10;38.00;;;;;;4901542;29;19911;-75
2022/06/18 10:52:25;;;;;;;;;;;29.20;38.30;;;;;;4901561;29;20375;-68
2022/06/18 10:54:51;;;;;;;;;;;29.10;38.30;;;;;;4899011;29;19916;-70
2022/06/18 10:57:24;;;;;;;;;;;29.10;39.00;;;;;;4901084;29;19927;-66
2022/06/18 10:59:50;;;;;;;;;;;29.20;38.20;;;;;;4900704;29;19931;-69
2022/06/18 11:02:29;;;;;;;;;;;29.10;38.60;;;;;;4901042;29;19911;-63
2022/06/18 11:04:56;;;;;;;;;;;29.20;37.90;;;;;;4900968;29;19915;-67
2022/06/18 11:07:23;;;;;;;;;;;29.10;39.20;;;;;;4885128;29;19916;-69
2022/06/18 11:09:49;;;;;;;;;;;29.10;40.10;;;;;;4881862;29;20365;-69
2022/06/18 11:12:41;;;;;;;;;;;29.10;39.40;;;;;;4894349;29;19915;-72
2022/06/18 11:15:45;;;;;;;;;;;29.20;38.60;;;;;;4888325;29;19994;-73
2022/06/18 11:18:15;;;;;;;;;;;29.10;39.20;;;;;;4861096;29;19920;-74
2022/06/18 11:20:52;;;;;;;;;;;29.20;39.40;;;;;;4861393;29;19951;-70
2022/06/18 11:23:18;;;;;;;;;;;29.20;38.50;;;;;;4861236;29;19912;-72
2022/06/18 11:25:45;;;;;;;;;;;29.20;39.70;;;;;;4861155;29;19967;-75
2022/06/18 11:28:15;;;;;;;;;;;29.20;38.80;;;;;;4861053;29;19923;-72
2022/06/18 11:30:42;;;;;;;;;;;29.20;39.70;;;;;;4861373;29;19916;-70
2022/06/18 11:33:19;;;;;;;;;;;29.20;38.90;;;;;;4861012;29;19968;-69
2022/06/18 11:35:47;;;;;;;;;;;29.30;37.70;;;;;;4861134;29;19912;-70
2022/06/18 11:38:22;;;;;;;;;;;29.30;37.70;;;;;;4860838;29;20293;-74
2022/06/18 11:40:51;;;;;;;;;;;29.30;38.80;;;;;;4861031;29;19912;-74
2022/06/18 11:43:28;;;;;;;;;;;29.30;38.40;;;;;;4860716;29;20014;-71
2022/06/18 11:45:58;;;;;;;;;;;29.30;38.50;;;;;;4860403;29;19912;-65
2022/06/18 11:48:31;;;;;;;;;;;29.40;38.10;;;;;;4868668;29;20364;-76
2022/06/18 11:51:01;;;;;;;;;;;29.30;38.30;;;;;;4900338;29;19999;-80
2022/06/18 11:53:34;;;;;;;;;;;29.30;37.60;;;;;;4900144;29;19959;-74
2022/06/18 11:56:02;;;;;;;;;;;29.30;38.10;;;;;;4900134;29;19918;-76
2022/06/18 11:58:34;;;;;;;;;;;29.30;38.90;;;;;;4899812;29;19923;-75
2022/06/18 12:01:03;;;;;;;;;;;29.30;38.80;;;;;;4900002;29;20320;-71
2022/06/18 12:03:31;;;;;;;;;;;29.30;39.60;;;;;;4900065;29;20386;-68
2022/06/18 12:06:15;;;;;;;;;;;29.30;39.50;;;;;;4899971;29;20261;-69
2022/06/18 12:08:41;;;;;;;;;;;29.30;39.80;;;;;;4899923;29;20368;-70
2022/06/18 12:11:25;;;;;;;;;;;29.30;40.10;;;;;;4899806;29;19958;-69
2022/06/18 12:13:55;;;;;;;;;;;29.40;40.40;;;;;;4898464;29;19911;-70
2022/06/18 12:16:26;;;;;;;;;;;29.40;39.80;;;;;;4902520;29;19967;-71
2022/06/18 12:18:55;;;;;;;;;;;29.40;40.00;;;;;;4913390;29;19923;-70
2022/06/18 12:21:24;;;;;;;;;;;29.40;40.80;;;;;;4913993;29;20027;-70
2022/06/18 12:23:50;;;;;;;;;;;29.30;41.00;;;;;;4914180;29;20281;-74
2022/06/18 12:26:19;;;;;;;;;;;29.30;40.80;;;;;;4914930;29;19988;-72
2022/06/18 12:29:00;;;;;;;;;;;29.30;41.20;;;;;;4917482;29;19918;-75
2022/06/18 12:31:28;;;;;;;;;;;29.40;40.90;;;;;;4899946;29;19919;-77
2022/06/18 12:33:56;;;;;;;;;;;29.40;41.10;;;;;;4899770;29;19915;-76
2022/06/18 12:36:28;;;;;;;;;;;29.40;40.10;;;;;;4899477;29;19955;-72
2022/06/18 12:38:59;;;;;;;;;;;29.30;40.80;;;;;;4899698;29;20349;-79
2022/06/18 12:41:38;;;;;;;;;;;29.20;40.30;;;;;;4900160;29;19912;-73
2022/06/18 12:44:04;;;;;;;;;;;29.20;40.70;;;;;;4898192;29;19915;-75
2022/06/18 12:46:41;;;;;;;;;;;29.20;40.10;;;;;;4899362;29;19912;-72
2022/06/18 12:49:14;;;;;;;;;;;29.20;40.40;;;;;;4896972;29;19971;-71
2022/06/18 12:51:43;;;;;;;;;;;29.20;40.30;;;;;;4899660;29;20279;-72
2022/06/18 12:54:27;;;;;;;;;;;29.20;40.50;;;;;;4899282;29;19946;-73
2022/06/18 12:57:04;;;;;;;;;;;29.20;40.40;;;;;;4898739;29;19915;-69
2022/06/18 12:59:48;;;;;;;;;;;29.20;40.70;;;;;;4899327;29;19911;-70
2022/06/18 13:02:24;;;;;;;;;;;29.10;42.10;;;;;;4899519;29;19918;-70
2022/06/18 13:05:01;;;;;;;;;;;29.10;43.10;;;;;;4899616;29;19939;-71
2022/06/18 13:07:30;;;;;;;;;;;29.00;44.10;;;;;;4899164;29;20014;-70
2022/06/18 13:09:56;;;;;;;;;;;28.90;43.70;;;;;;4898834;29;20356;-69
2022/06/18 13:12:24;;;;;;;;;;;28.80;43.40;;;;;;4899215;29;19923;-69
2022/06/18 13:15:08;;;;;;;;;;;28.70;43.90;;;;;;4899185;29;20013;-70
2022/06/18 13:17:49;;;;;;;;;;;28.60;44.10;;;;;;4899300;29;20014;-70
2022/06/18 13:20:21;;;;;;;;;;;28.60;45.00;;;;;;4898997;29;19912;-69
2022/06/18 13:22:46;;;;;;;;;;;28.50;44.00;;;;;;4898977;29;19923;-70
2022/06/18 13:28:13;;;;;;;;;;;28.40;44.60;;;;;;4899498;29;19966;-71
2022/06/18 13:30:50;;;;;;;;;;;28.40;43.80;;;;;;4898957;29;19912;-69
2022/06/18 13:33:36;;;;;;;;;;;28.50;44.30;;;;;;4899072;29;20329;-70
2022/06/18 13:36:07;;;;;;;;;;;28.40;45.20;;;;;;4898091;29;20368;-68
2022/06/18 13:38:45;;;;;;;;;;;28.40;45.10;;;;;;4898543;29;19926;-68
2022/06/18 13:41:21;;;;;;;;;;;28.50;45.60;;;;;;4898649;29;19912;-70
2022/06/18 13:43:52;;;;;;;;;;;28.50;45.40;;;;;;4899172;29;19912;-70
2022/06/18 13:46:18;;;;;;;;;;;28.50;45.90;;;;;;4898782;29;20010;-67
2022/06/18 13:49:07;;;;;;;;;;;28.50;45.60;;;;;;4898702;29;19963;-70
2022/06/18 13:51:34;;;;;;;;;;;28.50;45.90;;;;;;4895764;29;19919;-68
2022/06/18 13:54:18;;;;;;;;;;;28.50;45.90;;;;;;4898637;29;19934;-69
2022/06/18 13:56:55;;;;;;;;;;;28.60;45.80;;;;;;4898282;29;20229;-70
2022/06/18 13:59:21;;;;;;;;;;;28.60;45.90;;;;;;4898954;29;20265;-68
2022/06/18 14:01:49;;;;;;;;;;;28.60;46.20;;;;;;4897483;29;19998;-70
2022/06/18 14:04:20;;;;;;;;;;;28.60;46.60;;;;;;4898791;29;20253;-69
2022/06/18 14:06:47;;;;;;;;;;;28.60;46.20;;;;;;4898584;29;19995;-69
2022/06/18 14:09:17;;;;;;;;;;;28.60;46.90;;;;;;4901138;29;20371;-67
2022/06/18 14:11:45;;;;;;;;;;;28.60;46.20;;;;;;4902484;29;20002;-69
2022/06/18 14:14:11;;;;;;;;;;;28.60;46.70;;;;;;4902418;29;20368;-67
2022/06/18 14:16:41;;;;;;;;;;;28.60;47.00;;;;;;4902263;29;19916;-69
2022/06/18 14:19:25;;;;;;;;;;;28.60;46.40;;;;;;4902079;29;19918;-68
2022/06/18 14:22:11;;;;;;;;;;;28.50;46.30;;;;;;4902143;29;20270;-69
2022/06/18 14:24:58;;;;;;;;;;;28.50;46.10;;;;;;4898424;29;19915;-68
2022/06/18 14:27:23;;;;;;;;;;;28.50;46.60;;;;;;4901947;29;20292;-67
2022/06/18 14:29:49;;;;;;;;;;;28.50;45.80;;;;;;4900694;29;19912;-69
2022/06/18 14:32:20;;;;;;;;;;;28.50;46.20;;;;;;4900742;29;19936;-67
2022/06/18 14:34:49;;;;;;;;;;;28.50;46.60;;;;;;4901937;29;19912;-67
2022/06/18 14:37:15;;;;;;;;;;;28.50;46.90;;;;;;4901959;29;19919;-67
2022/06/18 14:39:48;;;;;;;;;;;28.50;47.00;;;;;;4901806;29;20280;-67
2022/06/18 14:42:22;;;;;;;;;;;28.60;46.70;;;;;;4902021;29;19911;-67
2022/06/18 14:45:02;;;;;;;;;;;28.60;46.30;;;;;;4901768;29;19911;-69
2022/06/18 14:47:48;;;;;;;;;;;28.70;46.40;;;;;;4901941;29;19911;-67